sensor_id;sensor_type;location;lat;lon;timestamp;pressure;altitude;pressure_sealevel;temperature;humidity
54872;BME280;43914;57.680;11.982;2022-09-09T00:02:06;100736.41;;;11.07;72.76
54872;BME280;43914;57.680;11.982;2022-09-09T00:05:31;100736.26;;;11.05;72.97
54872;BME280;43914;57.680;11.982;2022-09-09T00:10:29;100730.98;;;10.96;73.52
54872;BME280;43914;57.680;11.982;2022-09-09T00:13:22;100725.52;;;10.90;73.83
54872;BME280;43914;57.680;11.982;2022-09-09T00:19:03;100672.67;;;10.56;74.38
54872;BME280;43914;57.680;11.982;2022-09-09T00:21:51;100712.41;;;10.76;74.53
54872;BME280;43914;57.680;11.982;2022-09-09T00:27:36;100704.45;;;10.67;75.01
54872;BME280;43914;57.680;11.982;2022-09-09T00:30:23;100697.08;;;10.65;75.40
54872;BME280;43914;57.680;11.982;2022-09-09T00:33:01;100702.34;;;10.63;75.40
54872;BME280;43914;57.680;11.982;2022-09-09T00:35:34;100696.48;;;10.59;75.49
54872;BME280;43914;57.680;11.982;2022-09-09T00:38:12;100700.52;;;10.59;75.67
54872;BME280;43914;57.680;11.982;2022-09-09T00:41:05;100690.27;;;10.59;75.73
54872;BME280;43914;57.680;11.982;2022-09-09T00:43:46;100693.97;;;10.58;75.82
54872;BME280;43914;57.680;11.982;2022-09-09T00:50:44;100691.81;;;10.57;75.93
54872;BME280;43914;57.680;11.982;2022-09-09T00:55:19;100678.75;;;10.54;75.66
54872;BME280;43914;57.680;11.982;2022-09-09T00:57:50;100691.28;;;10.58;75.75
54872;BME280;43914;57.680;11.982;2022-09-09T01:03:17;100672.67;;;10.56;75.85
54872;BME280;43914;57.680;11.982;2022-09-09T01:06:19;100667.95;;;10.58;75.69
54872;BME280;43914;57.680;11.982;2022-09-09T01:17:26;100656.55;;;10.56;75.69
54872;BME280;43914;57.680;11.982;2022-09-09T01:28:29;100649.23;;;10.50;75.94
54872;BME280;43914;57.680;11.982;2022-09-09T01:30:57;100644.56;;;10.48;75.92
54872;BME280;43914;57.680;11.982;2022-09-09T01:33:24;100636.36;;;10.45;76.09
54872;BME280;43914;57.680;11.982;2022-09-09T01:35:56;100637.00;;;10.47;75.97
54872;BME280;43914;57.680;11.982;2022-09-09T01:38:27;100641.23;;;10.46;76.08
54872;BME280;43914;57.680;11.982;2022-09-09T01:40:55;100642.05;;;10.46;76.12
54872;BME280;43914;57.680;11.982;2022-09-09T01:43:22;100633.84;;;10.44;76.41
54872;BME280;43914;57.680;11.982;2022-09-09T01:45:52;100632.17;;;10.43;76.35
54872;BME280;43914;57.680;11.982;2022-09-09T01:48:21;100633.19;;;10.42;76.25
54872;BME280;43914;57.680;11.982;2022-09-09T01:50:53;100623.79;;;10.42;76.27
54872;BME280;43914;57.680;11.982;2022-09-09T01:53:21;100618.94;;;10.41;76.34
54872;BME280;43914;57.680;11.982;2022-09-09T01:56:02;100616.58;;;10.42;76.35
54872;BME280;43914;57.680;11.982;2022-09-09T02:03:55;100619.77;;;10.42;76.62
54872;BME280;43914;57.680;11.982;2022-09-09T02:06:36;100615.41;;;10.41;76.54
54872;BME280;43914;57.680;11.982;2022-09-09T02:09:10;100614.39;;;10.42;76.69
54872;BME280;43914;57.680;11.982;2022-09-09T02:11:38;100606.65;;;10.43;76.82
54872;BME280;43914;57.680;11.982;2022-09-09T02:14:13;100607.17;;;10.42;76.68
54872;BME280;43914;57.680;11.982;2022-09-09T02:16:51;100614.01;;;10.45;76.76
54872;BME280;43914;57.680;11.982;2022-09-09T02:19:34;100602.94;;;10.44;76.83
54872;BME280;43914;57.680;11.982;2022-09-09T02:22:03;100604.28;;;10.44;77.24
54872;BME280;43914;57.680;11.982;2022-09-09T02:24:33;100604.28;;;10.44;77.10
54872;BME280;43914;57.680;11.982;2022-09-09T02:27:03;100597.89;;;10.45;77.41
54872;BME280;43914;57.680;11.982;2022-09-09T02:29:34;100607.64;;;10.46;77.26
54872;BME280;43914;57.680;11.982;2022-09-09T02:32:06;100604.96;;;10.46;77.45
54872;BME280;43914;57.680;11.982;2022-09-09T02:34:45;100594.70;;;10.45;77.40
54872;BME280;43914;57.680;11.982;2022-09-09T02:37:15;100595.55;;;10.46;77.31
54872;BME280;43914;57.680;11.982;2022-09-09T02:39:47;100584.81;;;10.46;77.45
54872;BME280;43914;57.680;11.982;2022-09-09T02:42:13;100589.16;;;10.47;77.41
54872;BME280;43914;57.680;11.982;2022-09-09T02:44:40;100585.30;;;10.45;77.36
54872;BME280;43914;57.680;11.982;2022-09-09T02:50:14;100575.41;;;10.46;77.52
54872;BME280;43914;57.680;11.982;2022-09-09T02:58:17;100580.25;;;10.46;77.66
54872;BME280;43914;57.680;11.982;2022-09-09T03:00:46;100579.23;;;10.47;77.59
54872;BME280;43914;57.680;11.982;2022-09-09T03:03:15;100578.73;;;10.48;77.60
54872;BME280;43914;57.680;11.982;2022-09-09T03:05:42;100575.03;;;10.49;77.48
54872;BME280;43914;57.680;11.982;2022-09-09T03:08:09;100574.70;;;10.48;77.72
54872;BME280;43914;57.680;11.982;2022-09-09T03:10:35;100569.01;;;10.47;77.60
54872;BME280;43914;57.680;11.982;2022-09-09T03:13:08;100566.32;;;10.47;77.49
54872;BME280;43914;57.680;11.982;2022-09-09T03:15:35;100566.81;;;10.46;77.65
54872;BME280;43914;57.680;11.982;2022-09-09T03:18:01;100567.34;;;10.46;77.63
54872;BME280;43914;57.680;11.982;2022-09-09T03:20:28;100557.47;;;10.42;77.68
54872;BME280;43914;57.680;11.982;2022-09-09T03:22:55;100562.00;;;10.42;77.85
54872;BME280;43914;57.680;11.982;2022-09-09T03:25:24;100559.84;;;10.41;77.96
54872;BME280;43914;57.680;11.982;2022-09-09T03:27:52;100556.97;;;10.38;78.12
54872;BME280;43914;57.680;11.982;2022-09-09T03:30:21;100558.69;;;10.35;78.11
54872;BME280;43914;57.680;11.982;2022-09-09T03:32:48;100559.71;;;10.34;78.22
54872;BME280;43914;57.680;11.982;2022-09-09T03:35:15;100556.70;;;10.33;78.42
54872;BME280;43914;57.680;11.982;2022-09-09T03:37:43;100549.88;;;10.31;78.51
54872;BME280;43914;57.680;11.982;2022-09-09T03:40:09;100552.03;;;10.31;78.63
54872;BME280;43914;57.680;11.982;2022-09-09T03:42:37;100548.84;;;10.32;78.68
54872;BME280;43914;57.680;11.982;2022-09-09T03:45:05;100540.97;;;10.30;78.78
54872;BME280;43914;57.680;11.982;2022-09-09T03:47:33;100532.20;;;10.32;78.79
54872;BME280;43914;57.680;11.982;2022-09-09T03:49:59;100530.16;;;10.34;78.74
54872;BME280;43914;57.680;11.982;2022-09-09T03:52:25;100533.38;;;10.34;78.98
54872;BME280;43914;57.680;11.982;2022-09-09T03:54:53;100533.87;;;10.33;79.16
54872;BME280;43914;57.680;11.982;2022-09-09T03:57:20;100526.13;;;10.34;79.10
54872;BME280;43914;57.680;11.982;2022-09-09T03:59:47;100522.42;;;10.35;79.17
54872;BME280;43914;57.680;11.982;2022-09-09T04:02:13;100517.90;;;10.36;79.17
54872;BME280;43914;57.680;11.982;2022-09-09T04:04:41;100521.23;;;10.38;79.22
54872;BME280;43914;57.680;11.982;2022-09-09T04:07:07;100525.05;;;10.39;79.24
54872;BME280;43914;57.680;11.982;2022-09-09T04:09:33;100510.63;;;10.41;79.30
54872;BME280;43914;57.680;11.982;2022-09-09T04:12:00;100514.16;;;10.41;79.26
54872;BME280;43914;57.680;11.982;2022-09-09T04:14:27;100516.00;;;10.41;79.36
54872;BME280;43914;57.680;11.982;2022-09-09T04:16:54;100509.95;;;10.38;79.49
54872;BME280;43914;57.680;11.982;2022-09-09T04:19:22;100500.23;;;10.37;79.41
54872;BME280;43914;57.680;11.982;2022-09-09T04:21:48;100500.55;;;10.38;79.47
54872;BME280;43914;57.680;11.982;2022-09-09T04:24:16;100496.52;;;10.38;79.73
54872;BME280;43914;57.680;11.982;2022-09-09T04:26:43;100502.92;;;10.37;79.65
54872;BME280;43914;57.680;11.982;2022-09-09T04:29:09;100497.05;;;10.38;79.79
54872;BME280;43914;57.680;11.982;2022-09-09T04:31:36;100500.55;;;10.38;79.64
54872;BME280;43914;57.680;11.982;2022-09-09T04:34:03;100494.69;;;10.39;79.73
54872;BME280;43914;57.680;11.982;2022-09-09T04:36:32;100491.15;;;10.38;79.96
54872;BME280;43914;57.680;11.982;2022-09-09T04:39:00;100491.47;;;10.39;80.02
54872;BME280;43914;57.680;11.982;2022-09-09T04:41:27;100489.98;;;10.41;80.18
54872;BME280;43914;57.680;11.982;2022-09-09T04:43:54;100487.94;;;10.43;80.29
54872;BME280;43914;57.680;11.982;2022-09-09T04:46:21;100485.05;;;10.45;80.32
54872;BME280;43914;57.680;11.982;2022-09-09T04:48:50;100477.66;;;10.47;80.61
54872;BME280;43914;57.680;11.982;2022-09-09T04:51:17;100478.61;;;10.50;80.76
54872;BME280;43914;57.680;11.982;2022-09-09T04:53:44;100481.23;;;10.54;80.64
54872;BME280;43914;57.680;11.982;2022-09-09T04:56:16;100478.80;;;10.59;80.61
54872;BME280;43914;57.680;11.982;2022-09-09T04:58:43;100479.59;;;10.64;80.65
54872;BME280;43914;57.680;11.982;2022-09-09T05:01:13;100476.30;;;10.68;80.71
54872;BME280;43914;57.680;11.982;2022-09-09T05:03:45;100479.24;;;10.74;80.42
54872;BME280;43914;57.680;11.982;2022-09-09T05:06:14;100471.14;;;10.78;80.26
54872;BME280;43914;57.680;11.982;2022-09-09T05:08:43;100473.77;;;10.82;80.18
54872;BME280;43914;57.680;11.982;2022-09-09T05:11:20;100471.32;;;10.87;79.99
54872;BME280;43914;57.680;11.982;2022-09-09T05:13:50;100468.63;;;10.87;79.91
54872;BME280;43914;57.680;11.982;2022-09-09T05:16:17;100476.95;;;10.92;79.74
54872;BME280;43914;57.680;11.982;2022-09-09T05:18:44;100478.04;;;10.98;79.60
54872;BME280;43914;57.680;11.982;2022-09-09T05:21:16;100481.16;;;11.02;79.53
54872;BME280;43914;57.680;11.982;2022-09-09T05:23:44;100477.37;;;11.07;79.36
54872;BME280;43914;57.680;11.982;2022-09-09T05:26:17;100472.27;;;11.12;79.25
54872;BME280;43914;57.680;11.982;2022-09-09T05:28:44;100470.84;;;11.16;79.15
54872;BME280;43914;57.680;11.982;2022-09-09T05:31:12;100473.38;;;11.24;79.26
54872;BME280;43914;57.680;11.982;2022-09-09T05:33:44;100476.63;;;11.31;78.89
54872;BME280;43914;57.680;11.982;2022-09-09T05:36:13;100474.17;;;11.36;78.81
54872;BME280;43914;57.680;11.982;2022-09-09T05:38:42;100475.47;;;11.40;78.72
54872;BME280;43914;57.680;11.982;2022-09-09T05:41:10;100477.45;;;11.42;78.62
54872;BME280;43914;57.680;11.982;2022-09-09T05:43:37;100486.16;;;11.44;78.53
54872;BME280;43914;57.680;11.982;2022-09-09T05:46:06;100487.73;;;11.49;78.43
54872;BME280;43914;57.680;11.982;2022-09-09T05:48:36;100477.16;;;11.48;78.29
54872;BME280;43914;57.680;11.982;2022-09-09T05:51:05;100480.08;;;11.53;78.20
54872;BME280;43914;57.680;11.982;2022-09-09T05:53:35;100481.88;;;11.57;78.27
54872;BME280;43914;57.680;11.982;2022-09-09T05:56:06;100478.47;;;11.59;78.20
54872;BME280;43914;57.680;11.982;2022-09-09T05:58:36;100488.84;;;11.62;78.13
54872;BME280;43914;57.680;11.982;2022-09-09T06:01:05;100486.78;;;11.64;78.08
54872;BME280;43914;57.680;11.982;2022-09-09T06:03:37;100482.97;;;11.69;78.03
54872;BME280;43914;57.680;11.982;2022-09-09T06:06:07;100484.67;;;11.70;77.98
54872;BME280;43914;57.680;11.982;2022-09-09T06:08:36;100484.27;;;11.73;78.09
54872;BME280;43914;57.680;11.982;2022-09-09T06:11:06;100482.84;;;11.77;78.04
54872;BME280;43914;57.680;11.982;2022-09-09T06:13:34;100489.17;;;11.80;78.12
54872;BME280;43914;57.680;11.982;2022-09-09T06:16:03;100487.73;;;11.84;78.02
54872;BME280;43914;57.680;11.982;2022-09-09T06:18:32;100486.20;;;11.86;77.95
54872;BME280;43914;57.680;11.982;2022-09-09T06:21:01;100495.33;;;11.92;77.95
54872;BME280;43914;57.680;11.982;2022-09-09T06:23:33;100492.23;;;11.95;77.98
54872;BME280;43914;57.680;11.982;2022-09-09T06:26:09;100477.55;;;11.97;77.93
54872;BME280;43914;57.680;11.982;2022-09-09T06:28:36;100485.07;;;12.02;77.86
54872;BME280;43914;57.680;11.982;2022-09-09T06:31:05;100481.66;;;12.04;77.85
54872;BME280;43914;57.680;11.982;2022-09-09T06:33:41;100483.63;;;12.06;77.85
54872;BME280;43914;57.680;11.982;2022-09-09T06:36:16;100487.90;;;12.11;77.73
54872;BME280;43914;57.680;11.982;2022-09-09T06:38:38;100479.00;;;12.18;77.73
54872;BME280;43914;57.680;11.982;2022-09-09T06:41:04;100474.24;;;12.20;77.59
54872;BME280;43914;57.680;11.982;2022-09-09T06:43:31;100479.54;;;12.24;77.49
54872;BME280;43914;57.680;11.982;2022-09-09T06:46:04;100475.00;;;12.31;77.54
54872;BME280;43914;57.680;11.982;2022-09-09T06:48:29;100472.42;;;12.34;77.38
54872;BME280;43914;57.680;11.982;2022-09-09T06:51:08;100473.67;;;12.38;77.24
54872;BME280;43914;57.680;11.982;2022-09-09T06:53:35;100475.46;;;12.41;77.18
54872;BME280;43914;57.680;11.982;2022-09-09T06:56:16;100474.83;;;12.46;77.13
54872;BME280;43914;57.680;11.982;2022-09-09T06:58:41;100473.92;;;12.50;77.00
54872;BME280;43914;57.680;11.982;2022-09-09T07:01:08;100474.86;;;12.53;76.96
54872;BME280;43914;57.680;11.982;2022-09-09T07:03:41;100470.40;;;12.56;77.13
54872;BME280;43914;57.680;11.982;2022-09-09T07:06:14;100469.98;;;12.59;77.15
54872;BME280;43914;57.680;11.982;2022-09-09T07:08:43;100475.22;;;12.67;77.12
54872;BME280;43914;57.680;11.982;2022-09-09T07:11:14;100467.33;;;12.73;76.96
54872;BME280;43914;57.680;11.982;2022-09-09T07:13:40;100463.19;;;12.77;76.98
54872;BME280;43914;57.680;11.982;2022-09-09T07:16:10;100463.70;;;12.83;76.83
54872;BME280;43914;57.680;11.982;2022-09-09T07:18:39;100459.45;;;12.91;76.75
54872;BME280;43914;57.680;11.982;2022-09-09T07:21:06;100460.50;;;12.97;76.64
54872;BME280;43914;57.680;11.982;2022-09-09T07:23:34;100459.04;;;13.01;76.47
54872;BME280;43914;57.680;11.982;2022-09-09T07:26:06;100457.89;;;13.06;76.33
54872;BME280;43914;57.680;11.982;2022-09-09T07:28:41;100454.58;;;13.11;76.17
54872;BME280;43914;57.680;11.982;2022-09-09T07:34:30;100457.98;;;13.22;75.72
54872;BME280;43914;57.680;11.982;2022-09-09T07:36:56;100448.46;;;13.26;75.68
54872;BME280;43914;57.680;11.982;2022-09-09T07:39:22;100462.66;;;13.31;75.32
54872;BME280;43914;57.680;11.982;2022-09-09T07:41:49;100459.34;;;13.36;75.24
54872;BME280;43914;57.680;11.982;2022-09-09T07:44:19;100460.77;;;13.38;75.08
54872;BME280;43914;57.680;11.982;2022-09-09T07:46:51;100456.98;;;13.44;74.96
54872;BME280;43914;57.680;11.982;2022-09-09T07:49:17;100456.02;;;13.47;74.71
54872;BME280;43914;57.680;11.982;2022-09-09T07:51:46;100458.41;;;13.46;74.61
54872;BME280;43914;57.680;11.982;2022-09-09T07:54:15;100456.95;;;13.50;74.38
54872;BME280;43914;57.680;11.982;2022-09-09T07:56:44;100451.66;;;13.53;74.42
54872;BME280;43914;57.680;11.982;2022-09-09T07:59:10;100451.73;;;13.55;74.56
54872;BME280;43914;57.680;11.982;2022-09-09T08:01:46;100448.33;;;13.58;74.23
54872;BME280;43914;57.680;11.982;2022-09-09T08:04:16;100450.37;;;13.62;74.28
54872;BME280;43914;57.680;11.982;2022-09-09T08:06:51;100458.90;;;13.66;74.42
54872;BME280;43914;57.680;11.982;2022-09-09T08:09:20;100446.39;;;13.71;73.93
54872;BME280;43914;57.680;11.982;2022-09-09T08:11:47;100458.84;;;13.79;73.79
54872;BME280;43914;57.680;11.982;2022-09-09T08:14:15;100456.64;;;13.85;73.72
54872;BME280;43914;57.680;11.982;2022-09-09T08:16:44;100467.73;;;13.93;73.10
54872;BME280;43914;57.680;11.982;2022-09-09T08:19:11;100468.33;;;14.02;73.06
54872;BME280;43914;57.680;11.982;2022-09-09T08:21:39;100459.36;;;14.08;72.73
54872;BME280;43914;57.680;11.982;2022-09-09T08:24:08;100457.14;;;14.14;72.42
54872;BME280;43914;57.680;11.982;2022-09-09T08:26:38;100466.08;;;14.22;72.51
54872;BME280;43914;57.680;11.982;2022-09-09T08:29:08;100457.23;;;14.24;72.16
54872;BME280;43914;57.680;11.982;2022-09-09T08:31:38;100452.43;;;14.26;71.86
54872;BME280;43914;57.680;11.982;2022-09-09T08:34:06;100459.80;;;14.28;71.67
54872;BME280;43914;57.680;11.982;2022-09-09T08:36:36;100449.73;;;14.26;71.91
54872;BME280;43914;57.680;11.982;2022-09-09T08:39:05;100463.55;;;14.27;71.91
54872;BME280;43914;57.680;11.982;2022-09-09T08:50:37;100457.70;;;14.30;72.28
54872;BME280;43914;57.680;11.982;2022-09-09T08:53:19;100466.33;;;14.29;72.04
54872;BME280;43914;57.680;11.982;2022-09-09T08:55:53;100459.06;;;14.30;72.04
54872;BME280;43914;57.680;11.982;2022-09-09T08:58:25;100462.38;;;14.32;72.28
54872;BME280;43914;57.680;11.982;2022-09-09T09:07:14;100463.19;;;14.33;72.21
54872;BME280;43914;57.680;11.982;2022-09-09T09:12:40;100461.63;;;14.34;72.31
54872;BME280;43914;57.680;11.982;2022-09-09T09:15:53;100481.78;;;14.38;72.58
54872;BME280;43914;57.680;11.982;2022-09-09T09:17:46;100464.08;;;14.42;72.27
54872;BME280;43914;57.680;11.982;2022-09-09T09:20:16;100466.04;;;14.45;72.42
54872;BME280;43914;57.680;11.982;2022-09-09T09:22:49;100475.67;;;14.50;72.21
54872;BME280;43914;57.680;11.982;2022-09-09T09:25:23;100466.41;;;14.55;72.15
54872;BME280;43914;57.680;11.982;2022-09-09T09:30:42;100465.53;;;14.61;71.90
54872;BME280;43914;57.680;11.982;2022-09-09T09:33:19;100468.84;;;14.63;72.08
54872;BME280;43914;57.680;11.982;2022-09-09T09:35:50;100461.44;;;14.68;71.89
54872;BME280;43914;57.680;11.982;2022-09-09T09:38:22;100453.63;;;14.69;71.66
54872;BME280;43914;57.680;11.982;2022-09-09T09:40:52;100452.92;;;14.71;71.33
54872;BME280;43914;57.680;11.982;2022-09-09T09:43:32;100461.20;;;14.76;71.48
54872;BME280;43914;57.680;11.982;2022-09-09T09:46:00;100468.13;;;14.81;71.52
54872;BME280;43914;57.680;11.982;2022-09-09T09:48:31;100459.06;;;14.85;71.64
54872;BME280;43914;57.680;11.982;2022-09-09T09:51:01;100453.72;;;14.88;71.49
54872;BME280;43914;57.680;11.982;2022-09-09T09:53:34;100463.28;;;14.90;71.40
54872;BME280;43914;57.680;11.982;2022-09-09T09:56:11;100445.16;;;14.91;71.47
54872;BME280;43914;57.680;11.982;2022-09-09T09:58:50;100459.53;;;14.91;71.73
54872;BME280;43914;57.680;11.982;2022-09-09T10:01:31;100449.96;;;14.89;72.44
54872;BME280;43914;57.680;11.982;2022-09-09T10:04:21;100454.02;;;14.89;72.92
54872;BME280;43914;57.680;11.982;2022-09-09T10:06:52;100458.02;;;14.86;73.04
54872;BME280;43914;57.680;11.982;2022-09-09T10:09:29;100460.31;;;14.82;73.39
54872;BME280;43914;57.680;11.982;2022-09-09T10:12:10;100454.80;;;14.80;73.47
54872;BME280;43914;57.680;11.982;2022-09-09T10:15:03;100460.36;;;14.76;74.08
54872;BME280;43914;57.680;11.982;2022-09-09T10:23:18;100464.19;;;14.61;75.57
54872;BME280;43914;57.680;11.982;2022-09-09T10:28:38;100465.59;;;14.48;77.28
54872;BME280;43914;57.680;11.982;2022-09-09T10:31:34;100456.40;;;14.39;78.14
54872;BME280;43914;57.680;11.982;2022-09-09T10:43:39;100464.75;;;14.15;80.61
54872;BME280;43914;57.680;11.982;2022-09-09T10:55:14;100470.87;;;13.90;82.71
54872;BME280;43914;57.680;11.982;2022-09-09T10:57:56;100474.93;;;13.83;83.31
54872;BME280;43914;57.680;11.982;2022-09-09T11:00:25;100480.15;;;13.78;84.16
54872;BME280;43914;57.680;11.982;2022-09-09T11:03:02;100480.58;;;13.75;84.09
54872;BME280;43914;57.680;11.982;2022-09-09T11:05:41;100476.75;;;13.74;84.62
54872;BME280;43914;57.680;11.982;2022-09-09T11:08:21;100478.50;;;13.70;85.27
54872;BME280;43914;57.680;11.982;2022-09-09T11:25:16;100491.20;;;13.56;87.95
54872;BME280;43914;57.680;11.982;2022-09-09T11:30:59;100494.86;;;13.53;88.53
54872;BME280;43914;57.680;11.982;2022-09-09T11:39:49;100490.19;;;13.44;90.11
54872;BME280;43914;57.680;11.982;2022-09-09T11:42:23;100489.38;;;13.44;90.37
54872;BME280;43914;57.680;11.982;2022-09-09T11:44:50;100458.41;;;13.19;90.57
54872;BME280;43914;57.680;11.982;2022-09-09T11:47:24;100494.09;;;13.41;91.37
54872;BME280;43914;57.680;11.982;2022-09-09T11:52:46;100487.99;;;13.37;92.02
54872;BME280;43914;57.680;11.982;2022-09-09T11:55:28;100491.00;;;13.38;92.10
54872;BME280;43914;57.680;11.982;2022-09-09T12:00:44;100484.56;;;13.39;92.70
54872;BME280;43914;57.680;11.982;2022-09-09T12:03:50;100487.34;;;13.41;93.02
54872;BME280;43914;57.680;11.982;2022-09-09T12:06:32;100484.79;;;13.44;93.12
54872;BME280;43914;57.680;11.982;2022-09-09T12:11:46;100487.38;;;13.48;93.43
54872;BME280;43914;57.680;11.982;2022-09-09T12:17:18;100480.13;;;13.49;93.77
54872;BME280;43914;57.680;11.982;2022-09-09T12:19:46;100472.95;;;13.45;93.90
54872;BME280;43914;57.680;11.982;2022-09-09T12:22:33;100478.97;;;13.47;93.96
54872;BME280;43914;57.680;11.982;2022-09-09T12:31:12;100479.28;;;13.48;94.25
54872;BME280;43914;57.680;11.982;2022-09-09T12:33:42;100484.48;;;13.50;94.46
54872;BME280;43914;57.680;11.982;2022-09-09T12:36:16;100480.94;;;13.49;94.54
54872;BME280;43914;57.680;11.982;2022-09-09T12:38:46;100478.47;;;13.48;94.68
54872;BME280;43914;57.680;11.982;2022-09-09T12:41:23;100475.53;;;13.49;94.77
54872;BME280;43914;57.680;11.982;2022-09-09T12:44:02;100478.77;;;13.49;94.95
54872;BME280;43914;57.680;11.982;2022-09-09T12:46:45;100476.58;;;13.48;95.00
54872;BME280;43914;57.680;11.982;2022-09-09T12:49:27;100477.31;;;13.46;95.33
54872;BME280;43914;57.680;11.982;2022-09-09T12:52:15;100474.84;;;13.45;95.57
54872;BME280;43914;57.680;11.982;2022-09-09T12:54:47;100472.45;;;13.46;95.64
54872;BME280;43914;57.680;11.982;2022-09-09T12:57:14;100466.51;;;13.46;96.05
54872;BME280;43914;57.680;11.982;2022-09-09T12:59:44;100468.48;;;13.48;96.11
54872;BME280;43914;57.680;11.982;2022-09-09T13:02:25;100468.28;;;13.50;96.38
54872;BME280;43914;57.680;11.982;2022-09-09T13:04:53;100469.09;;;13.50;96.43
54872;BME280;43914;57.680;11.982;2022-09-09T13:07:21;100463.70;;;13.50;96.77
54872;BME280;43914;57.680;11.982;2022-09-09T13:09:48;100466.50;;;13.53;96.93
54872;BME280;43914;57.680;11.982;2022-09-09T13:12:20;100475.42;;;13.53;97.10
54872;BME280;43914;57.680;11.982;2022-09-09T13:14:52;100469.71;;;13.52;97.16
54872;BME280;43914;57.680;11.982;2022-09-09T13:17:23;100466.70;;;13.51;97.71
54872;BME280;43914;57.680;11.982;2022-09-09T13:19:51;100465.05;;;13.50;97.60
54872;BME280;43914;57.680;11.982;2022-09-09T13:22:27;100469.32;;;13.49;98.50
54872;BME280;43914;57.680;11.982;2022-09-09T13:25:01;100467.13;;;13.48;98.28
54872;BME280;43914;57.680;11.982;2022-09-09T13:27:35;100468.70;;;13.47;98.66
54872;BME280;43914;57.680;11.982;2022-09-09T13:35:57;100477.39;;;13.42;99.70
54872;BME280;43914;57.680;11.982;2022-09-09T13:38:32;100473.23;;;13.39;100.00
54872;BME280;43914;57.680;11.982;2022-09-09T13:41:03;100475.84;;;13.37;100.00
54872;BME280;43914;57.680;11.982;2022-09-09T13:43:45;100476.04;;;13.35;100.00
54872;BME280;43914;57.680;11.982;2022-09-09T13:46:34;100473.14;;;13.37;100.00
54872;BME280;43914;57.680;11.982;2022-09-09T13:51:50;100473.45;;;13.38;100.00
54872;BME280;43914;57.680;11.982;2022-09-09T13:54:20;100470.45;;;13.37;100.00
54872;BME280;43914;57.680;11.982;2022-09-09T13:56:47;100475.00;;;13.36;100.00
54872;BME280;43914;57.680;11.982;2022-09-09T13:59:18;100473.03;;;13.34;100.00
54872;BME280;43914;57.680;11.982;2022-09-09T14:01:49;100473.68;;;13.30;100.00
54872;BME280;43914;57.680;11.982;2022-09-09T14:04:18;100478.23;;;13.29;100.00
54872;BME280;43914;57.680;11.982;2022-09-09T14:06:46;100464.97;;;13.27;100.00
54872;BME280;43914;57.680;11.982;2022-09-09T14:09:14;100478.04;;;13.31;100.00
54872;BME280;43914;57.680;11.982;2022-09-09T14:11:46;100472.64;;;13.31;100.00
54872;BME280;43914;57.680;11.982;2022-09-09T14:14:15;100468.05;;;13.31;100.00
54872;BME280;43914;57.680;11.982;2022-09-09T14:16:46;100470.75;;;13.31;100.00
54872;BME280;43914;57.680;11.982;2022-09-09T14:19:13;100473.45;;;13.31;100.00
54872;BME280;43914;57.680;11.982;2022-09-09T14:21:40;100472.11;;;13.31;100.00
54872;BME280;43914;57.680;11.982;2022-09-09T14:24:06;100468.36;;;13.32;100.00
54872;BME280;43914;57.680;11.982;2022-09-09T14:26:32;100467.86;;;13.33;100.00
54872;BME280;43914;57.680;11.982;2022-09-09T14:28:58;100467.86;;;13.33;100.00
54872;BME280;43914;57.680;11.982;2022-09-09T14:31:29;100465.36;;;13.31;100.00
54872;BME280;43914;57.680;11.982;2022-09-09T14:33:56;100461.53;;;13.30;100.00
54872;BME280;43914;57.680;11.982;2022-09-09T14:36:22;100465.58;;;13.30;100.00
54872;BME280;43914;57.680;11.982;2022-09-09T14:38:49;100468.28;;;13.30;100.00
54872;BME280;43914;57.680;11.982;2022-09-09T14:41:18;100466.63;;;13.28;100.00
54872;BME280;43914;57.680;11.982;2022-09-09T14:43:45;100462.89;;;13.30;100.00
54872;BME280;43914;57.680;11.982;2022-09-09T14:46:14;100454.48;;;13.28;100.00
54872;BME280;43914;57.680;11.982;2022-09-09T14:48:43;100463.70;;;13.30;100.00
54872;BME280;43914;57.680;11.982;2022-09-09T14:51:16;100459.14;;;13.31;100.00
54872;BME280;43914;57.680;11.982;2022-09-09T14:53:45;100472.22;;;13.34;100.00
54872;BME280;43914;57.680;11.982;2022-09-09T14:56:17;100465.47;;;13.34;100.00
54872;BME280;43914;57.680;11.982;2022-09-09T14:58:47;100458.19;;;13.34;100.00
54872;BME280;43914;57.680;11.982;2022-09-09T15:01:16;100454.98;;;13.35;100.00
54872;BME280;43914;57.680;11.982;2022-09-09T15:03:53;100459.53;;;13.34;100.00
54872;BME280;43914;57.680;11.982;2022-09-09T15:06:31;100453.41;;;13.36;100.00
54872;BME280;43914;57.680;11.982;2022-09-09T15:08:59;100461.73;;;13.35;100.00
54872;BME280;43914;57.680;11.982;2022-09-09T15:11:33;100459.34;;;13.36;100.00
54872;BME280;43914;57.680;11.982;2022-09-09T15:14:01;100460.69;;;13.36;100.00
54872;BME280;43914;57.680;11.982;2022-09-09T15:16:28;100469.48;;;13.40;100.00
54872;BME280;43914;57.680;11.982;2022-09-09T15:18:56;100466.20;;;13.45;100.00
54872;BME280;43914;57.680;11.982;2022-09-09T15:21:30;100466.93;;;13.50;100.00
54872;BME280;43914;57.680;11.982;2022-09-09T15:23:56;100475.53;;;13.56;100.00
54872;BME280;43914;57.680;11.982;2022-09-09T15:26:24;100481.05;;;13.59;100.00
54872;BME280;43914;57.680;11.982;2022-09-09T15:28:51;100476.56;;;13.62;100.00
54872;BME280;43914;57.680;11.982;2022-09-09T15:31:23;100465.84;;;13.64;100.00